createdAt,value
2017-12-04T00:01:31.748Z,92.19
2017-12-04T00:04:00.043Z,92.48
2017-12-04T00:06:29.095Z,93.37
2017-12-04T00:08:57.380Z,93.48
2017-12-04T00:11:25.728Z,93.95
2017-12-04T00:13:54.013Z,95.01
2017-12-04T00:16:22.292Z,94.68
2017-12-04T00:18:50.630Z,93.08
2017-12-04T00:21:18.925Z,92.70
2017-12-04T00:23:47.203Z,94.05
2017-12-04T00:26:15.491Z,94.47
2017-12-04T00:28:43.767Z,94.96
2017-12-04T00:31:12.296Z,96.34
2017-12-04T00:33:40.587Z,96.89
2017-12-04T00:36:09.630Z,96.88
2017-12-04T00:38:37.904Z,98.13
2017-12-04T00:41:06.353Z,97.62
2017-12-04T00:43:34.649Z,97.55
2017-12-04T00:46:02.935Z,97.88
2017-12-04T00:48:31.225Z,98.94
2017-12-04T00:50:59.508Z,99.32
2017-12-04T00:53:27.796Z,99.65
2017-12-04T00:55:56.096Z,98.62
2017-12-04T00:58:24.378Z,98.81
2017-12-04T01:00:52.686Z,98.42
2017-12-04T01:03:21.735Z,98.30
2017-12-04T01:05:50.784Z,98.46
2017-12-04T01:08:19.769Z,99.19
2017-12-04T01:10:48.053Z,98.41
2017-12-04T01:13:16.351Z,98.89
2017-12-04T01:15:44.644Z,98.51
2017-12-04T01:18:12.929Z,97.68
2017-12-04T01:20:41.968Z,98.21
2017-12-04T01:23:10.281Z,98.52
2017-12-04T01:25:38.568Z,98.50
2017-12-04T01:28:06.875Z,98.06
2017-12-04T01:30:35.229Z,97.83
2017-12-04T01:33:03.553Z,98.50
2017-12-04T01:35:31.848Z,98.17
2017-12-04T01:38:00.139Z,98.30
2017-12-04T01:40:28.420Z,98.87
2017-12-04T01:42:56.708Z,97.99
2017-12-04T01:45:26.824Z,98.13
2017-12-04T01:47:56.104Z,97.08
2017-12-04T01:50:24.439Z,95.96
2017-12-04T01:52:52.717Z,96.18
2017-12-04T01:55:21.031Z,96.52
2017-12-04T01:57:49.355Z,96.63
2017-12-04T02:00:17.652Z,96.85
2017-12-04T02:02:45.928Z,96.47
2017-12-04T02:05:14.213Z,96.46
2017-12-04T02:07:43.268Z,96.34
2017-12-04T02:10:11.548Z,96.46
2017-12-04T02:12:39.892Z,96.58
2017-12-04T02:15:08.180Z,96.53
2017-12-04T02:17:36.462Z,96.26
2017-12-04T02:20:05.514Z,96.20
2017-12-04T02:22:33.807Z,96.82
2017-12-04T02:25:02.097Z,97.04
2017-12-04T02:27:30.377Z,97.04
2017-12-04T02:29:58.697Z,97.01
2017-12-04T02:32:27.543Z,96.94
2017-12-04T02:34:55.841Z,97.34
2017-12-04T02:37:24.133Z,97.05
2017-12-04T02:39:52.454Z,96.40
2017-12-04T02:42:20.752Z,96.51
2017-12-04T02:44:49.036Z,96.50
2017-12-04T02:47:17.320Z,96.94
2017-12-04T02:49:46.368Z,96.54
2017-12-04T02:52:14.652Z,96.69
2017-12-04T02:54:42.952Z,96.23
2017-12-04T02:57:11.241Z,95.79
2017-12-04T02:59:39.539Z,95.81
2017-12-04T03:02:07.825Z,96.15
2017-12-04T03:04:36.126Z,95.47
2017-12-04T03:07:04.409Z,94.80
2017-12-04T03:09:32.684Z,94.53
2017-12-04T03:12:00.996Z,94.43
2017-12-04T03:14:29.284Z,93.81
2017-12-04T03:16:57.569Z,94.22
2017-12-04T03:19:25.893Z,93.81
2017-12-04T03:21:54.173Z,94.36
2017-12-04T03:24:23.961Z,94.71
2017-12-04T03:26:52.249Z,94.77
2017-12-04T03:29:20.541Z,95.43
2017-12-04T03:31:48.838Z,96.02
2017-12-04T03:34:17.146Z,96.34
2017-12-04T03:36:45.432Z,96.21
2017-12-04T03:39:14.549Z,96.77
2017-12-04T03:41:42.824Z,96.67
2017-12-04T03:44:11.108Z,95.78
2017-12-04T03:46:39.383Z,95.65
2017-12-04T03:49:07.672Z,96.30
2017-12-04T03:51:35.948Z,96.35
2017-12-04T03:54:04.240Z,97.22
2017-12-04T03:56:32.532Z,97.01
2017-12-04T03:59:01.625Z,97.21
2017-12-04T04:01:29.912Z,97.66
2017-12-04T04:03:58.204Z,97.61
2017-12-04T04:06:26.492Z,97.44
2017-12-04T04:08:54.776Z,97.08
2017-12-04T04:11:23.060Z,97.03
2017-12-04T04:13:51.384Z,97.56
2017-12-04T04:16:19.672Z,97.16
2017-12-04T04:18:47.959Z,96.76
2017-12-04T04:21:16.310Z,97.64
2017-12-04T04:23:45.385Z,97.59
2017-12-04T04:26:13.681Z,97.12
2017-12-04T04:28:42.758Z,96.47
2017-12-04T04:31:11.069Z,95.91
2017-12-04T04:33:39.369Z,96.17
2017-12-04T04:36:07.663Z,95.51
2017-12-04T04:38:35.974Z,95.32
2017-12-04T04:41:04.257Z,94.77
2017-12-04T04:43:33.316Z,94.46
2017-12-04T04:46:01.632Z,94.23
2017-12-04T04:48:30.678Z,93.83
2017-12-04T04:50:59.716Z,93.62
2017-12-04T04:53:28.056Z,93.57
2017-12-04T04:55:56.350Z,93.00
2017-12-04T04:58:24.636Z,93.76
2017-12-04T05:00:52.920Z,93.74
2017-12-04T05:03:21.212Z,93.60
2017-12-04T05:05:50.275Z,94.11
2017-12-04T05:08:18.569Z,93.63
2017-12-04T05:10:47.616Z,93.58
2017-12-04T05:13:15.976Z,93.59
2017-12-04T05:15:44.988Z,93.57
2017-12-04T05:18:13.274Z,93.62
2017-12-04T05:20:41.550Z,93.62
2017-12-04T05:23:09.841Z,93.01
2017-12-04T05:25:38.152Z,93.14
2017-12-04T05:28:07.214Z,93.87
2017-12-04T05:30:35.513Z,93.98
2017-12-04T05:33:04.561Z,94.19
2017-12-04T05:35:32.849Z,93.48
2017-12-04T05:38:01.156Z,94.26
2017-12-04T05:40:30.221Z,94.00
2017-12-04T05:42:58.493Z,93.80
2017-12-04T05:45:26.777Z,93.91
2017-12-04T05:47:55.058Z,95.06
2017-12-04T05:50:23.354Z,95.41
2017-12-04T05:52:51.632Z,94.80
2017-12-04T05:55:19.949Z,96.66
2017-12-04T05:57:48.226Z,96.90
2017-12-04T06:00:16.518Z,97.76
2017-12-04T06:02:44.807Z,98.88
2017-12-04T06:05:13.098Z,99.32
2017-12-04T06:07:41.384Z,98.71
2017-12-04T06:10:09.672Z,97.30
2017-12-04T06:12:37.972Z,97.92
2017-12-04T06:15:06.263Z,97.64
2017-12-04T06:17:34.548Z,97.98
2017-12-04T06:20:02.840Z,97.69
2017-12-04T06:22:31.126Z,97.33
2017-12-04T06:24:59.410Z,96.81
2017-12-04T06:27:27.698Z,96.61
2017-12-04T06:29:56.995Z,96.73
2017-12-04T06:32:25.311Z,96.86
2017-12-04T06:34:53.597Z,97.32
2017-12-04T06:37:21.906Z,97.91
2017-12-04T06:39:50.216Z,97.94
2017-12-04T06:42:18.498Z,97.92
2017-12-04T06:44:47.561Z,98.17
2017-12-04T06:47:15.869Z,98.85
2017-12-04T06:49:44.164Z,98.91
2017-12-04T06:52:12.461Z,98.51
2017-12-04T06:54:40.735Z,99.14
2017-12-04T06:57:09.007Z,99.07
2017-12-04T06:59:37.286Z,98.43
2017-12-04T07:02:05.572Z,98.36
2017-12-04T07:04:33.847Z,99.29
2017-12-04T07:07:02.126Z,100.00
2017-12-04T07:09:30.413Z,99.02
2017-12-04T07:11:58.697Z,99.39
2017-12-04T07:14:26.995Z,98.88
2017-12-04T07:16:55.295Z,99.61
2017-12-04T07:19:23.572Z,99.87
2017-12-04T07:21:51.857Z,99.74
2017-12-04T07:24:20.142Z,99.94
2017-12-04T07:26:48.449Z,100.00
2017-12-04T07:29:16.750Z,100.00
2017-12-04T07:31:45.808Z,100.00
2017-12-04T07:34:14.102Z,99.73
2017-12-04T07:36:43.680Z,99.52
2017-12-04T07:39:11.964Z,99.65
2017-12-04T07:41:40.267Z,99.09
2017-12-04T07:44:08.568Z,99.54
2017-12-04T07:46:36.894Z,99.22
2017-12-04T07:49:05.181Z,98.88
2017-12-04T07:51:33.473Z,99.59
2017-12-04T07:54:01.752Z,99.73
2017-12-04T07:56:30.033Z,98.84
2017-12-04T07:58:58.351Z,99.04
2017-12-04T08:01:26.638Z,98.25
2017-12-04T08:03:54.933Z,98.28
2017-12-04T08:06:23.218Z,98.03
2017-12-04T08:08:51.537Z,97.63
2017-12-04T08:11:20.596Z,96.59
2017-12-04T08:13:48.874Z,96.75
2017-12-04T08:16:17.158Z,96.94
2017-12-04T08:18:45.449Z,97.44
2017-12-04T08:21:13.728Z,96.76
2017-12-04T08:23:42.830Z,97.67
2017-12-04T08:26:11.119Z,97.44
2017-12-04T08:28:39.406Z,97.59
2017-12-04T08:31:09.345Z,97.28
2017-12-04T08:33:37.653Z,97.11
2017-12-04T08:36:07.021Z,96.71
2017-12-04T08:38:35.297Z,96.73
2017-12-04T08:41:03.636Z,97.38
2017-12-04T08:43:31.910Z,96.66
2017-12-04T08:46:00.224Z,96.09
2017-12-04T08:48:28.506Z,96.51
2017-12-04T08:50:56.813Z,96.20
2017-12-04T08:53:25.101Z,96.58
2017-12-04T08:55:53.394Z,96.40
2017-12-04T08:58:22.444Z,96.94
2017-12-04T09:00:50.732Z,96.84
2017-12-04T09:03:19.023Z,95.89
2017-12-04T09:05:47.316Z,94.87
2017-12-04T09:08:17.606Z,95.20
2017-12-04T09:10:45.898Z,95.09
2017-12-04T09:13:14.181Z,94.35
2017-12-04T09:15:43.232Z,94.54
2017-12-04T09:18:11.516Z,94.95
2017-12-04T09:20:39.800Z,95.34
2017-12-04T09:23:08.732Z,95.83
2017-12-04T09:25:37.021Z,95.00
2017-12-04T09:28:05.308Z,94.97
2017-12-04T09:30:33.591Z,95.92
2017-12-04T09:33:01.876Z,96.44
2017-12-04T09:35:30.171Z,96.63
2017-12-04T09:37:58.449Z,97.31
2017-12-04T09:40:26.729Z,97.99
2017-12-04T09:42:55.881Z,98.78
2017-12-04T09:45:24.165Z,98.62
2017-12-04T09:47:52.450Z,98.51
2017-12-04T09:50:20.736Z,98.95
2017-12-04T09:52:49.028Z,98.63
2017-12-04T09:55:17.308Z,98.85
2017-12-04T09:57:45.599Z,98.03
2017-12-04T10:00:13.878Z,97.88
2017-12-04T10:02:42.157Z,97.90
2017-12-04T10:05:10.452Z,98.39
2017-12-04T10:07:39.496Z,98.18
2017-12-04T10:10:07.797Z,97.23
2017-12-04T10:12:36.068Z,96.67
2017-12-04T10:15:04.348Z,96.54
2017-12-04T10:17:32.640Z,96.42
2017-12-04T10:20:01.693Z,96.35
2017-12-04T10:22:29.974Z,96.58
2017-12-04T10:24:58.250Z,96.42
2017-12-04T10:27:26.528Z,96.40
2017-12-04T10:29:54.816Z,96.75
2017-12-04T10:32:23.095Z,96.57
2017-12-04T10:34:51.369Z,97.36
2017-12-04T10:37:19.651Z,97.13
2017-12-04T10:39:47.938Z,96.62
2017-12-04T10:42:16.220Z,97.57
2017-12-04T10:44:45.268Z,97.03
2017-12-04T10:47:13.561Z,96.70
2017-12-04T10:49:41.857Z,96.56
2017-12-04T10:52:10.143Z,96.87
2017-12-04T10:54:39.184Z,98.04
2017-12-04T10:57:07.460Z,97.30
2017-12-04T10:59:35.748Z,96.61
2017-12-04T11:02:04.032Z,95.49
2017-12-04T11:04:32.313Z,95.04
2017-12-04T11:07:00.584Z,94.47
2017-12-04T11:09:28.868Z,94.42
2017-12-04T11:11:57.155Z,94.27
2017-12-04T11:14:25.432Z,93.48
2017-12-04T11:16:53.712Z,93.09
2017-12-04T11:19:21.999Z,93.33
2017-12-04T11:21:50.289Z,93.34
2017-12-04T11:24:18.579Z,94.24
2017-12-04T11:26:47.252Z,94.57
2017-12-04T11:29:15.533Z,94.90
2017-12-04T11:31:43.808Z,95.64
2017-12-04T11:34:12.088Z,96.98
2017-12-04T11:36:41.876Z,97.50
2017-12-04T11:39:10.152Z,97.93
2017-12-04T11:41:39.205Z,98.12
2017-12-04T11:44:07.493Z,98.12
2017-12-04T11:46:35.801Z,98.41
2017-12-04T11:49:04.845Z,98.50
2017-12-04T11:51:33.124Z,98.40
2017-12-04T11:54:02.177Z,97.04
2017-12-04T11:56:31.234Z,96.94
2017-12-04T11:59:00.209Z,96.46
2017-12-04T12:01:28.475Z,96.36
2017-12-04T12:03:56.756Z,95.78
2017-12-04T12:06:25.057Z,96.04
2017-12-04T12:08:53.325Z,96.68
2017-12-04T12:11:21.597Z,96.31
2017-12-04T12:13:49.865Z,97.37
2017-12-04T12:16:18.140Z,98.01
2017-12-04T12:18:46.422Z,98.75
2017-12-04T12:21:14.690Z,98.34
2017-12-04T12:23:43.063Z,97.84
2017-12-04T12:26:11.342Z,98.02
2017-12-04T12:28:39.652Z,98.30
2017-12-04T12:31:07.941Z,97.90
2017-12-04T12:33:36.229Z,96.60
2017-12-04T12:36:05.272Z,96.20
2017-12-04T12:38:33.549Z,96.88
2017-12-04T12:41:01.826Z,96.66
2017-12-04T12:43:30.697Z,96.29
2017-12-04T12:45:58.985Z,95.94
2017-12-04T12:48:27.272Z,94.77
2017-12-04T12:50:55.554Z,94.74
2017-12-04T12:53:23.856Z,94.42
2017-12-04T12:55:52.904Z,93.93
2017-12-04T12:58:21.188Z,94.71
2017-12-04T13:00:49.479Z,94.75
2017-12-04T13:03:17.749Z,94.36
2017-12-04T13:05:46.040Z,94.07
2017-12-04T13:08:14.317Z,95.03
2017-12-04T13:10:42.612Z,94.67
2017-12-04T13:13:11.664Z,94.73
2017-12-04T13:15:39.985Z,95.09
2017-12-04T13:18:08.272Z,96.28
2017-12-04T13:20:37.313Z,96.57
2017-12-04T13:23:05.589Z,96.63
2017-12-04T13:25:33.868Z,95.64
2017-12-04T13:28:02.160Z,95.16
2017-12-04T13:30:30.469Z,95.23
2017-12-04T13:33:17.468Z,95.64
2017-12-04T13:36:03.336Z,97.27
2017-12-04T13:38:31.613Z,96.88
2017-12-04T13:40:59.911Z,98.51
2017-12-04T13:43:28.958Z,99.08
2017-12-04T13:45:57.248Z,100.00
2017-12-04T13:48:25.569Z,100.00
2017-12-04T13:50:54.637Z,99.35
2017-12-04T13:53:22.926Z,99.28
2017-12-04T13:55:51.209Z,99.21
2017-12-04T13:58:19.503Z,99.64
2017-12-04T14:00:47.783Z,99.45
2017-12-04T14:03:16.090Z,100.00
2017-12-04T14:05:44.461Z,100.00
2017-12-04T14:08:12.795Z,99.45
2017-12-04T14:10:41.849Z,98.64
2017-12-04T14:13:10.132Z,99.03
2017-12-04T14:15:38.413Z,97.91
2017-12-04T14:18:06.716Z,97.48
2017-12-04T14:20:35.776Z,96.57
2017-12-04T14:23:04.053Z,95.78
2017-12-04T14:25:32.439Z,94.45
2017-12-04T14:28:00.717Z,92.84
2017-12-04T14:30:29.001Z,92.54
2017-12-04T14:32:57.289Z,92.04
2017-12-04T14:35:25.576Z,91.84
2017-12-04T14:37:53.933Z,91.95
2017-12-04T14:40:22.221Z,92.48
2017-12-04T14:42:51.274Z,93.33
2017-12-04T14:45:19.561Z,92.49
2017-12-04T14:47:47.868Z,93.28
2017-12-04T14:50:16.148Z,93.01
2017-12-04T14:52:44.435Z,92.45
2017-12-04T14:55:13.483Z,92.49
2017-12-04T14:57:41.774Z,92.01
2017-12-04T15:00:10.112Z,92.15
2017-12-04T15:02:38.429Z,91.93
2017-12-04T15:05:06.713Z,91.68
2017-12-04T15:07:34.997Z,92.04
2017-12-04T15:10:03.385Z,91.93
2017-12-04T15:12:32.428Z,91.83
2017-12-04T15:15:00.723Z,91.67
2017-12-04T15:17:29.079Z,91.79
2017-12-04T15:19:58.796Z,92.38
2017-12-04T15:22:27.130Z,92.52
2017-12-04T15:24:56.224Z,92.53
2017-12-04T15:27:24.508Z,92.60
2017-12-04T15:29:53.336Z,92.36
2017-12-04T15:32:21.624Z,92.59
2017-12-04T15:34:49.915Z,93.66
2017-12-04T15:37:18.200Z,92.98
2017-12-04T15:39:46.480Z,95.06
2017-12-04T15:42:15.524Z,94.20
2017-12-04T15:44:43.917Z,94.11
2017-12-04T15:47:12.215Z,94.95
2017-12-04T15:49:40.488Z,94.62
2017-12-04T15:52:08.772Z,94.56
2017-12-04T15:54:37.100Z,94.32
2017-12-04T15:57:05.380Z,94.20
2017-12-04T15:59:34.476Z,94.38
2017-12-04T16:02:02.761Z,94.35
2017-12-04T16:04:31.049Z,94.30
2017-12-04T16:06:59.349Z,94.82
2017-12-04T16:09:27.635Z,95.26
2017-12-04T16:11:56.834Z,95.17
2017-12-04T16:14:25.128Z,94.63
2017-12-04T16:16:53.444Z,94.03
2017-12-04T16:19:21.890Z,93.72
2017-12-04T16:21:50.198Z,94.34
2017-12-04T16:24:18.470Z,94.23
2017-12-04T16:26:47.840Z,93.71
2017-12-04T16:29:16.143Z,93.25
2017-12-04T16:31:44.416Z,93.11
2017-12-04T16:34:12.820Z,93.03
2017-12-04T16:36:41.100Z,93.20
2017-12-04T16:39:09.404Z,94.05
2017-12-04T16:41:37.709Z,95.43
2017-12-04T16:44:06.054Z,95.46
2017-12-04T16:46:34.361Z,97.98
2017-12-04T16:49:02.653Z,97.79
2017-12-04T16:51:30.957Z,97.24
2017-12-04T16:53:59.258Z,97.52
2017-12-04T16:56:27.581Z,96.85
2017-12-04T16:58:55.872Z,96.26
2017-12-04T17:01:24.195Z,96.01
2017-12-04T17:03:52.507Z,95.77
2017-12-04T17:06:20.818Z,95.43
2017-12-04T17:08:49.112Z,95.82
2017-12-04T17:11:17.490Z,94.82
2017-12-04T17:13:45.824Z,95.62
2017-12-04T17:16:14.229Z,95.53
2017-12-04T17:18:42.564Z,96.03
2017-12-04T17:21:10.873Z,95.88
2017-12-04T17:23:39.180Z,95.41
2017-12-04T17:26:07.506Z,96.01
2017-12-04T17:28:35.846Z,95.22
2017-12-04T17:31:04.189Z,96.87
2017-12-04T17:33:32.516Z,98.19
2017-12-04T17:36:00.942Z,99.87
2017-12-04T17:38:29.285Z,99.51
2017-12-04T17:40:58.306Z,98.93
2017-12-04T17:43:26.598Z,98.36
2017-12-04T17:45:54.902Z,97.40
2017-12-04T17:48:23.227Z,96.63
2017-12-04T17:50:52.108Z,95.96
2017-12-04T17:53:20.455Z,94.95
2017-12-04T17:55:48.839Z,96.34
2017-12-04T17:58:17.159Z,95.24
2017-12-04T18:00:45.488Z,94.55
2017-12-04T18:03:14.574Z,94.29
2017-12-04T18:05:42.914Z,94.56
2017-12-04T18:08:11.234Z,95.25
2017-12-04T18:10:39.620Z,95.75
2017-12-04T18:13:08.498Z,95.92
2017-12-04T18:15:37.674Z,95.38
2017-12-04T18:18:06.633Z,95.32
2017-12-04T18:20:35.051Z,96.41
2017-12-04T18:23:03.360Z,96.34
2017-12-04T18:25:32.487Z,95.75
2017-12-04T18:28:01.000Z,95.22
2017-12-04T18:30:29.338Z,94.64
2017-12-04T18:32:57.682Z,95.15
2017-12-04T18:35:26.001Z,96.38
2017-12-04T18:37:54.311Z,96.27
2017-12-04T18:40:22.750Z,95.73
2017-12-04T18:42:51.112Z,95.80
2017-12-04T18:45:19.686Z,96.02
2017-12-04T18:47:48.170Z,95.31
2017-12-04T18:50:16.931Z,95.53
2017-12-04T18:52:46.271Z,95.77
2017-12-04T18:55:16.086Z,96.10
2017-12-04T18:57:45.737Z,96.07
2017-12-04T19:00:14.842Z,95.70
2017-12-04T19:02:44.305Z,95.74
2017-12-04T19:05:14.092Z,95.46
2017-12-04T19:07:43.969Z,95.84
2017-12-04T19:10:13.960Z,96.51
2017-12-04T19:12:43.959Z,97.62
2017-12-04T19:15:13.688Z,96.90
2017-12-04T19:17:43.374Z,96.54
2017-12-04T19:20:13.305Z,95.95
2017-12-04T19:22:43.178Z,95.78
2017-12-04T19:25:13.066Z,95.27
2017-12-04T19:27:43.024Z,95.03
2017-12-04T19:30:12.920Z,96.57
2017-12-04T19:32:42.941Z,97.26
2017-12-04T19:35:13.052Z,97.61
2017-12-04T19:37:43.070Z,97.86
2017-12-04T19:40:13.223Z,97.95
2017-12-04T19:42:43.219Z,97.06
2017-12-04T19:45:13.293Z,97.69
2017-12-04T19:47:43.338Z,97.21
2017-12-04T19:50:13.438Z,97.34
2017-12-04T19:52:43.470Z,96.74
2017-12-04T19:55:13.775Z,96.24
2017-12-04T19:57:43.812Z,95.83
2017-12-04T20:00:13.943Z,95.15
2017-12-04T20:02:44.081Z,95.76
2017-12-04T20:05:14.869Z,95.65
2017-12-04T20:07:45.630Z,95.59
2017-12-04T20:10:15.667Z,95.31
2017-12-04T20:12:45.811Z,95.52
2017-12-04T20:15:16.049Z,95.33
2017-12-04T20:17:46.312Z,95.44
2017-12-04T20:20:16.500Z,95.00
2017-12-04T20:22:46.669Z,95.10
2017-12-04T20:25:16.743Z,94.73
2017-12-04T20:27:46.723Z,94.52
2017-12-04T20:30:17.713Z,94.39
2017-12-04T20:32:47.735Z,94.47
2017-12-04T20:35:17.717Z,94.90
2017-12-04T20:37:47.822Z,94.51
2017-12-04T20:40:18.187Z,94.11
2017-12-04T20:42:48.329Z,94.48
2017-12-04T20:45:18.479Z,94.42
2017-12-04T20:47:48.724Z,94.41
2017-12-04T20:50:18.713Z,94.60
2017-12-04T20:52:50.247Z,96.44
2017-12-04T20:55:20.334Z,95.73
2017-12-04T20:57:50.719Z,95.65
2017-12-04T21:00:20.931Z,95.57
2017-12-04T21:02:50.979Z,95.37
2017-12-04T21:05:21.106Z,95.73
2017-12-04T21:07:53.076Z,95.77
2017-12-04T21:10:40.206Z,95.51
2017-12-04T21:13:27.342Z,95.11
2017-12-04T21:16:21.607Z,95.51
2017-12-04T21:18:51.613Z,95.21
2017-12-04T21:21:21.632Z,95.23
2017-12-04T21:23:51.605Z,95.23
2017-12-04T21:26:22.388Z,95.73
2017-12-04T21:28:52.387Z,96.23
2017-12-04T21:31:22.381Z,97.30
2017-12-04T21:33:52.380Z,96.72
2017-12-04T21:36:23.064Z,96.62
2017-12-04T21:38:53.443Z,96.23
2017-12-04T21:41:24.284Z,95.81
2017-12-04T21:43:54.990Z,95.94
2017-12-04T21:46:25.041Z,95.41
2017-12-04T21:48:55.647Z,95.72
2017-12-04T21:51:25.507Z,95.22
2017-12-04T21:53:55.456Z,94.98
2017-12-04T21:56:25.620Z,95.17
2017-12-04T21:58:56.357Z,95.69
2017-12-04T22:01:25.727Z,95.93
2017-12-04T22:03:54.280Z,95.63
2017-12-04T22:06:22.593Z,95.20
2017-12-04T22:08:50.892Z,94.62
2017-12-04T22:11:19.182Z,94.53
2017-12-04T22:13:47.470Z,95.17
2017-12-04T22:16:15.752Z,94.63
2017-12-04T22:18:44.042Z,94.99
2017-12-04T22:21:12.377Z,94.75
2017-12-04T22:23:40.661Z,94.81
2017-12-04T22:26:08.945Z,94.13
2017-12-04T22:28:37.234Z,93.90
2017-12-04T22:31:05.520Z,96.08
2017-12-04T22:33:33.814Z,96.20
2017-12-04T22:36:02.898Z,96.11
2017-12-04T22:38:31.185Z,96.62
2017-12-04T22:41:00.248Z,96.20
2017-12-04T22:43:28.545Z,95.98
2017-12-04T22:45:56.858Z,98.45
2017-12-04T22:48:25.155Z,100.00
2017-12-04T22:50:53.757Z,100.00
2017-12-04T22:53:22.037Z,99.85
2017-12-04T22:55:50.315Z,99.58
2017-12-04T22:58:18.646Z,99.35
2017-12-04T23:00:46.930Z,100.00
2017-12-04T23:03:15.213Z,100.00
2017-12-04T23:05:43.495Z,99.47
2017-12-04T23:08:11.776Z,100.00
2017-12-04T23:10:40.764Z,99.11
2017-12-04T23:13:09.068Z,98.48
2017-12-04T23:15:38.272Z,98.23
2017-12-04T23:18:06.560Z,98.22
2017-12-04T23:20:34.850Z,98.56
2017-12-04T23:23:03.914Z,100.00
2017-12-04T23:25:32.199Z,100.00
2017-12-04T23:28:00.485Z,100.00
2017-12-04T23:30:28.781Z,100.00
2017-12-04T23:32:57.171Z,99.94
2017-12-04T23:35:25.500Z,99.18
2017-12-04T23:37:53.804Z,98.48
2017-12-04T23:40:22.085Z,97.06
2017-12-04T23:42:50.361Z,97.51
2017-12-04T23:45:19.064Z,97.21
2017-12-04T23:47:47.350Z,96.93
2017-12-04T23:50:15.633Z,96.46
2017-12-04T23:52:43.913Z,96.31
2017-12-04T23:55:12.198Z,96.21
2017-12-04T23:57:40.486Z,96.08
